createdAt,value
2023-04-21T00:00:42.414Z,91.03
2023-04-21T00:01:42.435Z,91.03
2023-04-21T00:02:42.505Z,91.02
2023-04-21T00:03:42.535Z,91.00
2023-04-21T00:04:42.620Z,91.00
2023-04-21T00:05:42.533Z,91.01
2023-04-21T00:06:42.334Z,90.99
2023-04-21T00:07:42.296Z,90.98
2023-04-21T00:08:42.313Z,90.95
2023-04-21T00:09:42.566Z,90.90
2023-04-21T00:10:42.576Z,90.90
2023-04-21T00:11:42.544Z,90.84
2023-04-21T00:12:42.611Z,90.83
2023-04-21T00:13:42.227Z,90.81
2023-04-21T00:14:42.257Z,90.85
2023-04-21T00:15:42.289Z,90.86
2023-04-21T00:16:42.221Z,90.88
2023-04-21T00:17:42.223Z,90.87
2023-04-21T00:18:42.169Z,90.87
2023-04-21T00:19:42.251Z,90.85
2023-04-21T00:20:42.241Z,90.83
2023-04-21T00:21:42.148Z,90.82
2023-04-21T00:22:42.115Z,90.82
2023-04-21T00:23:42.516Z,90.83
2023-04-21T00:24:42.090Z,90.84
2023-04-21T00:25:42.100Z,90.86
2023-04-21T00:26:42.176Z,90.83
2023-04-21T00:27:42.052Z,90.82
2023-04-21T00:28:42.045Z,90.81
2023-04-21T00:29:42.188Z,90.82
2023-04-21T00:30:42.025Z,90.83
2023-04-21T00:31:42.067Z,90.83
2023-04-21T00:32:42.047Z,90.80
2023-04-21T00:33:41.996Z,90.82
2023-04-21T00:34:42.195Z,90.83
2023-04-21T00:35:41.963Z,90.84
2023-04-21T00:36:42.186Z,90.85
2023-04-21T00:37:41.975Z,90.86
2023-04-21T00:38:41.921Z,90.83
2023-04-21T00:39:41.934Z,90.86
2023-04-21T00:40:41.909Z,90.86
2023-04-21T00:41:41.900Z,90.84
2023-04-21T00:42:42.200Z,90.85
2023-04-21T00:43:41.876Z,90.83
2023-04-21T00:44:41.856Z,90.84
2023-04-21T00:45:42.197Z,90.86
2023-04-21T00:46:41.945Z,90.88
2023-04-21T00:47:41.902Z,90.87
2023-04-21T00:48:42.191Z,90.90
2023-04-21T00:49:41.816Z,90.90
2023-04-21T00:50:41.779Z,90.91
2023-04-21T00:51:41.786Z,90.92
2023-04-21T00:52:41.775Z,90.92
2023-04-21T00:53:41.914Z,90.94
2023-04-21T00:54:41.741Z,90.94
2023-04-21T00:55:41.744Z,90.93
2023-04-21T00:56:41.710Z,90.94
2023-04-21T00:57:42.105Z,90.96
2023-04-21T00:58:42.203Z,90.97
2023-04-21T00:59:41.691Z,91.00
2023-04-21T01:00:41.731Z,91.01
2023-04-21T01:01:41.740Z,91.03
2023-04-21T01:02:41.848Z,91.05
2023-04-21T01:03:41.839Z,91.05
2023-04-21T01:04:41.625Z,91.05
2023-04-21T01:05:41.630Z,91.08
2023-04-21T01:06:41.801Z,91.09
2023-04-21T01:07:41.605Z,91.09
2023-04-21T01:08:41.946Z,91.09
2023-04-21T01:09:41.787Z,91.09
2023-04-21T01:10:41.551Z,91.09
2023-04-21T01:11:41.552Z,91.09
2023-04-21T01:12:41.524Z,91.10
2023-04-21T01:13:41.544Z,91.09
2023-04-21T01:14:42.152Z,91.11
2023-04-21T01:15:42.124Z,91.13
2023-04-21T01:16:41.521Z,91.11
2023-04-21T01:17:41.503Z,91.13
2023-04-21T01:18:41.469Z,91.14
2023-04-21T01:19:41.467Z,91.15
2023-04-21T01:20:41.490Z,91.15
2023-04-21T01:21:41.447Z,91.18
2023-04-21T01:22:41.416Z,91.21
2023-04-21T01:23:41.425Z,91.23
2023-04-21T01:24:41.551Z,91.25
2023-04-21T01:25:41.405Z,91.28
2023-04-21T01:26:41.367Z,91.30
2023-04-21T01:27:41.381Z,91.31
2023-04-21T01:28:41.359Z,91.31
2023-04-21T01:29:41.621Z,91.32
2023-04-21T01:30:41.620Z,91.35
2023-04-21T01:31:41.367Z,91.37
2023-04-21T01:32:41.308Z,91.40
2023-04-21T01:33:41.549Z,91.42
2023-04-21T01:34:41.273Z,91.41
2023-04-21T01:35:41.268Z,91.43
2023-04-21T01:36:41.239Z,91.45
2023-04-21T01:37:41.714Z,91.46
2023-04-21T01:38:41.257Z,91.47
2023-04-21T01:39:41.255Z,91.48
2023-04-21T01:40:41.763Z,91.50
2023-04-21T01:41:41.243Z,91.50
2023-04-21T01:42:41.549Z,91.51
2023-04-21T01:43:41.807Z,91.49
2023-04-21T01:44:41.813Z,91.49
2023-04-21T01:45:41.280Z,91.49
2023-04-21T01:46:41.156Z,91.49
2023-04-21T01:47:41.189Z,91.46
2023-04-21T01:48:41.185Z,91.45
2023-04-21T01:49:41.217Z,91.43
2023-04-21T01:50:41.095Z,91.42
2023-04-21T01:51:41.320Z,91.39
2023-04-21T01:52:41.055Z,91.39
2023-04-21T01:53:41.363Z,91.42
2023-04-21T01:54:41.248Z,91.42
2023-04-21T01:55:41.040Z,91.39
2023-04-21T01:56:41.292Z,91.40
2023-04-21T01:57:41.036Z,91.38
2023-04-21T01:58:41.010Z,91.41
2023-04-21T01:59:41.004Z,91.39
2023-04-21T02:00:40.969Z,91.39
2023-04-21T02:01:41.140Z,91.39
2023-04-21T02:02:41.348Z,91.40
2023-04-21T02:03:41.119Z,91.42
2023-04-21T02:04:41.108Z,91.42
2023-04-21T02:05:40.924Z,91.38
2023-04-21T02:06:40.894Z,91.35
2023-04-21T02:07:40.998Z,91.36
2023-04-21T02:08:40.883Z,91.37
2023-04-21T02:09:41.866Z,91.36
2023-04-21T02:10:40.979Z,91.38
2023-04-21T02:11:40.852Z,91.37
2023-04-21T02:12:41.756Z,91.32
2023-04-21T02:13:41.273Z,91.25
2023-04-21T02:14:40.795Z,91.25
2023-04-21T02:15:40.827Z,91.23
2023-04-21T02:16:41.351Z,91.21
2023-04-21T02:17:41.370Z,91.26
2023-04-21T02:18:40.781Z,91.30
2023-04-21T02:19:41.583Z,91.31
2023-04-21T02:20:41.504Z,91.36
2023-04-21T02:21:40.732Z,91.34
2023-04-21T02:22:40.708Z,91.36
2023-04-21T02:23:40.714Z,91.37
2023-04-21T02:24:40.691Z,91.31
2023-04-21T02:25:41.041Z,91.35
2023-04-21T02:26:40.671Z,91.39
2023-04-21T02:27:40.663Z,91.41
2023-04-21T02:28:41.282Z,91.41
2023-04-21T02:29:40.639Z,91.41
2023-04-21T02:30:42.531Z,91.44
2023-04-21T02:31:54.302Z,91.45
2023-04-21T02:32:41.699Z,91.46
2023-04-21T02:33:40.627Z,91.47
2023-04-21T02:34:40.639Z,91.52
2023-04-21T02:35:40.571Z,91.53
2023-04-21T02:36:40.713Z,91.57
2023-04-21T02:37:40.710Z,91.60
2023-04-21T02:38:40.538Z,91.63
2023-04-21T02:39:40.511Z,91.64
2023-04-21T02:40:40.523Z,91.64
2023-04-21T02:41:40.526Z,91.66
2023-04-21T02:42:40.544Z,91.65
2023-04-21T02:43:40.560Z,91.65
2023-04-21T02:44:40.554Z,91.66
2023-04-21T02:45:40.460Z,91.68
2023-04-21T02:46:40.480Z,91.70
2023-04-21T02:47:40.434Z,91.69
2023-04-21T02:48:40.407Z,91.70
2023-04-21T02:49:40.627Z,91.70
2023-04-21T02:50:40.549Z,91.72
2023-04-21T02:51:40.374Z,91.74
2023-04-21T02:52:40.669Z,91.72
2023-04-21T02:53:40.367Z,91.71
2023-04-21T02:54:40.326Z,91.70
2023-04-21T02:55:40.329Z,91.68
2023-04-21T02:56:40.300Z,91.68
2023-04-21T02:57:40.313Z,91.70
2023-04-21T02:58:40.305Z,91.68
2023-04-21T02:59:40.287Z,91.66
2023-04-21T03:00:40.341Z,91.64
2023-04-21T03:01:40.255Z,91.61
2023-04-21T03:02:40.490Z,91.59
2023-04-21T03:03:40.329Z,91.55
2023-04-21T03:04:40.305Z,91.53
2023-04-21T03:05:40.313Z,91.52
2023-04-21T03:06:40.192Z,91.55
2023-04-21T03:07:40.305Z,91.56
2023-04-21T03:08:40.312Z,91.57
2023-04-21T03:09:40.155Z,91.58
2023-04-21T03:10:40.135Z,91.58
2023-04-21T03:11:40.341Z,91.61
2023-04-21T03:12:40.114Z,91.57
2023-04-21T03:13:40.171Z,91.56
2023-04-21T03:14:40.306Z,91.52
2023-04-21T03:15:40.091Z,91.54
2023-04-21T03:16:40.328Z,91.53
2023-04-21T03:17:40.136Z,91.56
2023-04-21T03:18:40.048Z,91.55
2023-04-21T03:19:40.060Z,91.52
2023-04-21T03:20:40.060Z,91.50
2023-04-21T03:21:40.110Z,91.52
2023-04-21T03:22:39.993Z,91.55
2023-04-21T03:23:40.153Z,91.52
2023-04-21T03:24:40.185Z,91.46
2023-04-21T03:25:39.974Z,91.42
2023-04-21T03:26:40.239Z,91.41
2023-04-21T03:27:39.951Z,91.39
2023-04-21T03:28:40.300Z,91.40
2023-04-21T03:29:40.193Z,91.38
2023-04-21T03:30:39.894Z,91.35
2023-04-21T03:31:39.930Z,91.28
2023-04-21T03:32:40.353Z,91.25
2023-04-21T03:33:39.883Z,91.22
2023-04-21T03:34:39.858Z,91.13
2023-04-21T03:35:39.960Z,91.11
2023-04-21T03:36:39.822Z,91.13
2023-04-21T03:37:40.327Z,91.15
2023-04-21T03:38:39.910Z,91.09
2023-04-21T03:39:39.831Z,91.07
2023-04-21T03:40:40.337Z,91.07
2023-04-21T03:41:40.134Z,91.08
2023-04-21T03:42:39.764Z,91.07
2023-04-21T03:43:40.346Z,91.06
2023-04-21T03:44:39.977Z,90.99
2023-04-21T03:45:40.334Z,90.95
2023-04-21T03:46:39.715Z,90.94
2023-04-21T03:47:39.733Z,90.94
2023-04-21T03:48:40.299Z,90.93
2023-04-21T03:49:39.691Z,90.88
2023-04-21T03:50:39.680Z,90.88
2023-04-21T03:51:40.363Z,90.79
2023-04-21T03:52:39.641Z,90.77
2023-04-21T03:53:39.993Z,90.74
2023-04-21T03:54:39.612Z,90.73
2023-04-21T03:55:39.628Z,90.66
2023-04-21T03:56:40.007Z,90.60
2023-04-21T03:57:40.355Z,90.53
2023-04-21T03:58:39.574Z,90.44
2023-04-21T03:59:39.585Z,90.40
2023-04-21T04:00:39.561Z,90.43
2023-04-21T04:01:39.601Z,90.41
2023-04-21T04:02:39.737Z,90.39
2023-04-21T04:03:39.718Z,90.37
2023-04-21T04:04:39.796Z,90.40
2023-04-21T04:05:39.538Z,90.39
2023-04-21T04:06:39.493Z,90.38
2023-04-21T04:07:39.490Z,90.38
2023-04-21T04:08:39.453Z,90.39
2023-04-21T04:09:39.655Z,90.40
2023-04-21T04:10:39.441Z,90.40
2023-04-21T04:11:39.712Z,90.41
2023-04-21T04:12:39.739Z,90.42
2023-04-21T04:13:39.414Z,90.42
2023-04-21T04:14:39.390Z,90.44
2023-04-21T04:15:39.800Z,90.47
2023-04-21T04:16:39.387Z,90.50
2023-04-21T04:17:39.772Z,90.55
2023-04-21T04:18:39.905Z,90.53
2023-04-21T04:19:39.339Z,90.53
2023-04-21T04:20:39.372Z,90.50
2023-04-21T04:21:39.440Z,90.48
2023-04-21T04:22:39.297Z,90.50
2023-04-21T04:23:39.298Z,90.51
2023-04-21T04:24:39.920Z,90.51
2023-04-21T04:25:39.926Z,90.51
2023-04-21T04:26:39.269Z,90.56
2023-04-21T04:27:39.962Z,90.59
2023-04-21T04:28:39.370Z,90.65
2023-04-21T04:29:39.233Z,90.65
2023-04-21T04:30:39.370Z,90.66
2023-04-21T04:31:39.260Z,90.69
2023-04-21T04:32:39.346Z,90.75
2023-04-21T04:33:39.384Z,90.79
2023-04-21T04:34:39.165Z,90.81
2023-04-21T04:35:39.141Z,90.80
2023-04-21T04:36:39.155Z,90.77
2023-04-21T04:37:39.117Z,90.74
2023-04-21T04:38:39.108Z,90.78
2023-04-21T04:39:39.095Z,90.81
2023-04-21T04:40:39.090Z,90.80
2023-04-21T04:41:39.226Z,90.79
2023-04-21T04:42:39.082Z,90.80
2023-04-21T04:43:39.041Z,90.85
2023-04-21T04:44:39.389Z,90.91
2023-04-21T04:45:39.381Z,90.90
2023-04-21T04:46:39.048Z,90.87
2023-04-21T04:47:39.023Z,90.88
2023-04-21T04:48:39.388Z,90.88
2023-04-21T04:49:39.391Z,90.93
2023-04-21T04:50:38.977Z,91.04
2023-04-21T04:51:38.951Z,91.08
2023-04-21T04:52:38.990Z,91.12
2023-04-21T04:53:38.946Z,91.17
2023-04-21T04:54:38.930Z,91.21
2023-04-21T04:55:38.903Z,91.24
2023-04-21T04:56:38.908Z,91.22
2023-04-21T04:57:39.109Z,91.23
2023-04-21T04:58:38.892Z,91.22
2023-04-21T04:59:38.857Z,91.22
2023-04-21T05:00:39.225Z,91.21
2023-04-21T05:01:38.922Z,91.21
2023-04-21T05:02:39.104Z,91.22
2023-04-21T05:03:39.033Z,91.25
2023-04-21T05:04:38.871Z,91.25
2023-04-21T05:05:39.257Z,91.26
2023-04-21T05:06:38.802Z,91.28
2023-04-21T05:07:38.770Z,91.28
2023-04-21T05:08:38.780Z,91.28
2023-04-21T05:09:38.752Z,91.26
2023-04-21T05:10:38.750Z,91.27
2023-04-21T05:11:38.727Z,91.29
2023-04-21T05:12:38.745Z,91.27
2023-04-21T05:13:40.145Z,91.28
2023-04-21T05:14:38.729Z,91.28
2023-04-21T05:15:38.676Z,91.28
2023-04-21T05:16:39.464Z,91.32
2023-04-21T05:17:38.690Z,91.32
2023-04-21T05:18:38.681Z,91.32
2023-04-21T05:19:38.650Z,91.29
2023-04-21T05:20:38.632Z,91.27
2023-04-21T05:21:38.689Z,91.29
2023-04-21T05:22:38.619Z,91.28
2023-04-21T05:23:38.589Z,91.29
2023-04-21T05:24:38.748Z,91.28
2023-04-21T05:25:38.647Z,91.26
2023-04-21T05:26:38.607Z,91.26
2023-04-21T05:27:38.577Z,91.24
2023-04-21T05:28:38.585Z,91.25
2023-04-21T05:29:38.803Z,91.24
2023-04-21T05:30:38.529Z,91.26
2023-04-21T05:31:38.874Z,91.27
2023-04-21T05:32:38.972Z,91.28
2023-04-21T05:33:38.470Z,91.26
2023-04-21T05:34:38.480Z,91.27
2023-04-21T05:35:38.446Z,91.28
2023-04-21T05:36:38.449Z,91.29
2023-04-21T05:37:38.415Z,91.28
2023-04-21T05:38:38.423Z,91.31
2023-04-21T05:39:38.402Z,91.31
2023-04-21T05:40:38.396Z,91.35
2023-04-21T05:41:38.365Z,91.35
2023-04-21T05:42:38.377Z,91.34
2023-04-21T05:43:38.352Z,91.36
2023-04-21T05:44:38.364Z,91.38
2023-04-21T05:45:38.344Z,91.37
2023-04-21T05:46:38.406Z,91.37
2023-04-21T05:47:38.385Z,91.38
2023-04-21T05:48:38.295Z,91.43
2023-04-21T05:49:38.293Z,91.42
2023-04-21T05:50:38.280Z,91.40
2023-04-21T05:51:38.248Z,91.42
2023-04-21T05:52:38.270Z,91.39
2023-04-21T05:53:38.230Z,91.37
2023-04-21T05:54:38.249Z,91.41
2023-04-21T05:55:38.210Z,91.41
2023-04-21T05:56:38.240Z,91.40
2023-04-21T05:57:38.177Z,91.38
2023-04-21T05:58:38.205Z,91.38
2023-04-21T05:59:38.165Z,91.36
2023-04-21T06:00:38.155Z,91.40
2023-04-21T06:01:38.133Z,91.40
2023-04-21T06:02:38.352Z,91.36
2023-04-21T06:03:38.327Z,91.30
2023-04-21T06:04:38.263Z,91.27
2023-04-21T06:05:38.107Z,91.28
2023-04-21T06:06:38.091Z,91.27
2023-04-21T06:07:38.062Z,91.22
2023-04-21T06:08:38.074Z,91.18
2023-04-21T06:09:38.058Z,91.05
2023-04-21T06:10:38.036Z,90.97
2023-04-21T06:11:38.014Z,90.97
2023-04-21T06:12:38.016Z,90.92
2023-04-21T06:13:39.140Z,90.81
2023-04-21T06:14:37.999Z,90.77
2023-04-21T06:15:37.974Z,90.69
2023-04-21T06:16:38.612Z,90.64
2023-04-21T06:17:38.476Z,90.55
2023-04-21T06:18:37.973Z,90.48
2023-04-21T06:19:37.932Z,90.37
2023-04-21T06:20:37.938Z,90.28
2023-04-21T06:21:37.906Z,90.35
2023-04-21T06:22:37.890Z,90.34
2023-04-21T06:23:37.872Z,90.37
2023-04-21T06:24:37.873Z,90.39
2023-04-21T06:25:38.188Z,90.34
2023-04-21T06:26:37.854Z,90.33
2023-04-21T06:27:37.836Z,90.32
2023-04-21T06:28:37.828Z,90.30
2023-04-21T06:29:37.807Z,90.28
2023-04-21T06:30:37.825Z,90.26
2023-04-21T06:31:37.796Z,90.14
2023-04-21T06:32:38.486Z,89.76
2023-04-21T06:33:38.477Z,89.68
2023-04-21T06:34:37.773Z,89.67
2023-04-21T06:35:37.741Z,89.63
2023-04-21T06:36:37.755Z,89.39
2023-04-21T06:37:37.705Z,89.34
2023-04-21T06:38:37.709Z,89.37
2023-04-21T06:39:37.689Z,89.41
2023-04-21T06:40:37.705Z,89.20
2023-04-21T06:41:37.793Z,89.11
2023-04-21T06:42:37.683Z,89.01
2023-04-21T06:43:37.637Z,88.69
2023-04-21T06:44:37.640Z,88.31
2023-04-21T06:45:37.624Z,87.27
2023-04-21T06:46:37.683Z,86.55
2023-04-21T06:47:37.654Z,85.91
2023-04-21T06:48:37.606Z,85.56
2023-04-21T06:49:37.588Z,84.94
2023-04-21T06:50:37.593Z,84.68
2023-04-21T06:51:37.556Z,84.35
2023-04-21T06:52:37.552Z,83.19
2023-04-21T06:53:37.597Z,82.24
2023-04-21T06:54:37.550Z,81.74
2023-04-21T06:55:37.494Z,81.41
2023-04-21T06:56:38.018Z,81.49
2023-04-21T06:57:37.503Z,81.54
2023-04-21T06:58:37.476Z,81.21
2023-04-21T06:59:37.448Z,81.08
2023-04-21T07:00:37.458Z,80.76
2023-04-21T07:01:37.533Z,80.50
2023-04-21T07:02:37.538Z,80.58
2023-04-21T07:03:37.514Z,80.52
2023-04-21T07:04:37.460Z,80.10
2023-04-21T07:05:37.409Z,79.87
2023-04-21T07:06:37.426Z,79.81
2023-04-21T07:07:37.381Z,79.95
2023-04-21T07:08:37.385Z,79.80
2023-04-21T07:09:37.328Z,80.03
2023-04-21T07:10:37.347Z,80.18
2023-04-21T07:11:37.349Z,80.17
2023-04-21T07:12:37.380Z,80.00
2023-04-21T07:13:37.295Z,79.99
2023-04-21T07:14:37.343Z,79.92
2023-04-21T07:15:37.289Z,79.79
2023-04-21T07:16:37.317Z,79.48
2023-04-21T07:17:37.345Z,79.51
2023-04-21T07:18:37.272Z,79.56
2023-04-21T07:19:37.242Z,79.69
2023-04-21T07:20:37.239Z,79.75
2023-04-21T07:21:37.230Z,79.94
2023-04-21T07:22:37.234Z,79.81
2023-04-21T07:23:37.191Z,79.63
2023-04-21T07:24:37.183Z,79.44
2023-04-21T07:25:37.171Z,79.15
2023-04-21T07:26:37.167Z,79.21
2023-04-21T07:27:37.146Z,79.13
2023-04-21T07:28:37.155Z,78.79
2023-04-21T07:29:37.116Z,78.84
2023-04-21T07:30:37.142Z,79.04
2023-04-21T07:31:37.181Z,79.64
2023-04-21T07:32:37.130Z,79.80
2023-04-21T07:33:37.083Z,79.77
2023-04-21T07:34:37.081Z,79.40
2023-04-21T07:35:37.063Z,79.41
2023-04-21T07:36:37.040Z,79.62
2023-04-21T07:37:37.023Z,79.59
2023-04-21T07:38:37.047Z,79.33
2023-04-21T07:39:37.001Z,79.21
2023-04-21T07:40:36.994Z,79.12
2023-04-21T07:41:36.990Z,79.17
2023-04-21T07:42:36.976Z,79.41
2023-04-21T07:43:36.941Z,78.87
2023-04-21T07:44:36.960Z,78.72
2023-04-21T07:45:36.905Z,78.86
2023-04-21T07:46:37.025Z,78.63
2023-04-21T07:47:36.930Z,78.25
2023-04-21T07:48:36.891Z,78.82
2023-04-21T07:49:36.922Z,78.58
2023-04-21T07:50:36.865Z,78.94
2023-04-21T07:51:36.834Z,79.21
2023-04-21T07:52:36.858Z,79.17
2023-04-21T07:53:36.823Z,78.96
2023-04-21T07:54:36.837Z,78.51
2023-04-21T07:55:36.820Z,78.49
2023-04-21T07:56:36.804Z,77.61
2023-04-21T07:57:36.781Z,77.62
2023-04-21T07:58:36.794Z,77.61
2023-04-21T07:59:36.756Z,76.99
2023-04-21T08:00:36.763Z,76.93
2023-04-21T08:01:36.724Z,76.67
2023-04-21T08:02:36.796Z,76.88
2023-04-21T08:03:36.862Z,76.95
2023-04-21T08:04:36.978Z,76.89
2023-04-21T08:05:40.172Z,76.66
2023-04-21T08:06:36.828Z,76.22
2023-04-21T08:07:36.659Z,76.07
2023-04-21T08:08:36.656Z,75.97
2023-04-21T11:58:48.070Z,58.99
2023-04-21T11:59:48.004Z,60.07
2023-04-21T12:00:48.101Z,59.10
2023-04-21T12:01:48.104Z,59.90
2023-04-21T12:02:48.084Z,59.96
2023-04-21T12:03:48.407Z,60.68
2023-04-21T12:04:48.295Z,59.99
2023-04-21T12:05:48.197Z,60.71
2023-04-21T12:06:48.182Z,61.06
2023-04-21T12:07:48.199Z,61.47
2023-04-21T12:08:48.204Z,61.86
2023-04-21T12:09:48.071Z,62.06
2023-04-21T12:10:48.254Z,62.10
2023-04-21T12:11:49.599Z,61.65
2023-04-21T12:12:48.255Z,58.51
2023-04-21T12:13:48.267Z,59.23
2023-04-21T12:14:48.259Z,58.78
2023-04-21T12:15:48.320Z,58.29
2023-04-21T12:16:47.972Z,58.10
2023-04-21T12:17:48.348Z,58.54
2023-04-21T12:18:48.317Z,58.77
2023-04-21T12:19:48.340Z,58.38
2023-04-21T12:20:47.745Z,57.91
2023-04-21T12:21:47.761Z,58.23
2023-04-21T12:22:47.764Z,58.03
2023-04-21T12:23:47.751Z,58.94
2023-04-21T12:24:47.732Z,58.93
2023-04-21T12:25:47.758Z,58.41
2023-04-21T12:26:47.682Z,58.16
2023-04-21T12:27:47.739Z,57.45
2023-04-21T12:28:47.702Z,58.27
2023-04-21T12:29:47.737Z,57.71
2023-04-21T12:30:47.764Z,57.66
2023-04-21T12:31:47.865Z,57.63
2023-04-21T12:32:47.830Z,58.39
2023-04-21T12:33:47.717Z,58.27
2023-04-21T12:34:47.753Z,58.14
2023-04-21T12:35:47.602Z,58.12
2023-04-21T12:36:47.603Z,57.14
2023-04-21T12:37:47.633Z,58.02
2023-04-21T12:38:47.665Z,57.17
2023-04-21T12:39:47.564Z,58.03
2023-04-21T12:40:47.519Z,58.04
2023-04-21T12:41:47.529Z,57.06
2023-04-21T12:42:47.477Z,56.03
2023-04-21T12:43:47.541Z,57.57
2023-04-21T12:44:47.467Z,57.73
2023-04-21T12:45:47.837Z,57.63
2023-04-21T12:46:47.450Z,57.30
2023-04-21T12:47:47.488Z,56.47
2023-04-21T12:48:47.467Z,57.91
2023-04-21T12:49:47.513Z,58.04
2023-04-21T12:50:47.399Z,57.38
2023-04-21T12:51:47.432Z,57.24
2023-04-21T12:52:47.405Z,57.78
2023-04-21T12:53:47.399Z,58.48
2023-04-21T12:54:47.350Z,58.52
2023-04-21T12:55:57.279Z,57.90
2023-04-21T12:56:48.413Z,57.25
2023-04-21T12:57:47.324Z,57.66
2023-04-21T12:58:47.311Z,55.73
2023-04-21T12:59:47.308Z,55.12
2023-04-21T13:00:47.300Z,55.27
2023-04-21T13:01:47.352Z,55.06
2023-04-21T13:02:47.350Z,55.27
2023-04-21T13:03:47.430Z,56.53
2023-04-21T13:04:47.340Z,56.24
2023-04-21T13:05:47.251Z,55.68
2023-04-21T13:06:47.204Z,54.66
2023-04-21T13:07:47.211Z,55.75
2023-04-21T13:08:47.270Z,55.75
2023-04-21T13:09:47.185Z,55.79
2023-04-21T13:10:47.196Z,56.45
2023-04-21T13:11:47.516Z,56.86
2023-04-21T13:12:47.509Z,55.85
2023-04-21T13:13:47.518Z,55.57
2023-04-21T13:14:47.125Z,55.98
2023-04-21T13:15:47.124Z,56.80
2023-04-21T13:16:47.183Z,57.18
2023-04-21T13:17:47.098Z,55.54
2023-04-21T13:18:47.067Z,56.57
2023-04-21T13:19:47.135Z,56.65
2023-04-21T13:20:47.045Z,55.60
2023-04-21T13:21:47.049Z,54.76
2023-04-21T13:22:47.030Z,54.87
2023-04-21T13:23:47.015Z,55.25
2023-04-21T13:24:46.991Z,55.98
2023-04-21T13:25:47.009Z,56.10
2023-04-21T13:26:46.989Z,55.95
2023-04-21T13:27:47.018Z,56.57
2023-04-21T13:28:46.948Z,57.53
2023-04-21T13:29:46.941Z,57.58
2023-04-21T13:30:46.937Z,56.60
2023-04-21T13:31:46.935Z,55.97
2023-04-21T13:32:46.991Z,56.65
2023-04-21T13:33:46.899Z,57.54
2023-04-21T13:34:46.912Z,57.11
2023-04-21T13:35:46.883Z,57.77
2023-04-21T13:36:46.903Z,58.38
2023-04-21T13:37:47.365Z,58.67
2023-04-21T13:38:46.847Z,58.40
2023-04-21T13:39:46.848Z,57.49
2023-04-21T13:40:46.811Z,58.49
2023-04-21T13:41:46.810Z,59.01
2023-04-21T13:42:46.834Z,58.73
2023-04-21T13:43:46.795Z,58.63
2023-04-21T13:44:46.818Z,59.00
2023-04-21T13:45:46.755Z,56.96
2023-04-21T13:46:46.821Z,58.15
2023-04-21T13:47:46.803Z,57.92
2023-04-21T13:48:46.794Z,58.36
2023-04-21T13:49:46.722Z,58.00
2023-04-21T13:50:46.714Z,59.30
2023-04-21T13:51:46.699Z,59.58
2023-04-21T13:52:46.689Z,58.79
2023-04-21T13:53:46.696Z,58.98
2023-04-21T13:54:46.632Z,58.50
2023-04-21T13:55:46.648Z,58.71
2023-04-21T13:56:46.607Z,58.98
2023-04-21T13:57:46.647Z,58.87
2023-04-21T13:58:46.603Z,59.28
2023-04-21T13:59:47.578Z,58.11
2023-04-21T14:00:46.561Z,58.39
2023-04-21T14:01:46.660Z,58.79
2023-04-21T14:02:46.814Z,58.72
2023-04-21T14:03:46.700Z,57.69
2023-04-21T14:04:46.879Z,56.39
2023-04-21T14:05:46.840Z,55.48
2023-04-21T14:06:46.529Z,55.01
2023-04-21T14:07:46.531Z,55.70
2023-04-21T14:08:46.490Z,56.00
2023-04-21T14:09:46.480Z,57.16
2023-04-21T14:10:46.459Z,56.91
2023-04-21T14:11:46.471Z,57.09
2023-04-21T14:12:46.448Z,55.73
2023-04-21T14:14:00.880Z,56.10
2023-04-21T14:14:47.402Z,57.10
2023-04-21T14:15:46.795Z,57.89
2023-04-21T14:16:46.467Z,57.44
2023-04-21T14:17:46.429Z,57.73
2023-04-21T14:18:46.413Z,57.02
2023-04-21T14:19:46.369Z,55.22
2023-04-21T14:20:46.352Z,54.72
2023-04-21T14:21:46.335Z,55.33
2023-04-21T14:22:46.345Z,55.15
2023-04-21T14:23:46.345Z,54.26
2023-04-21T14:24:46.293Z,54.76
2023-04-21T14:25:46.282Z,53.81
2023-04-21T14:26:46.276Z,54.75
2023-04-21T14:27:46.292Z,53.96
2023-04-21T14:28:46.249Z,54.39
2023-04-21T14:29:46.841Z,54.89
2023-04-21T14:30:46.212Z,55.43
2023-04-21T14:31:46.263Z,55.50
2023-04-21T14:32:46.237Z,54.43
2023-04-21T14:33:46.250Z,54.37
2023-04-21T14:34:46.199Z,54.26
2023-04-21T14:35:46.159Z,54.58
2023-04-21T14:36:46.155Z,54.47
2023-04-21T14:37:46.119Z,54.70
2023-04-21T14:38:46.197Z,54.37
2023-04-21T14:39:46.097Z,54.75
2023-04-21T14:40:46.127Z,55.12
2023-04-21T14:41:46.125Z,55.33
2023-04-21T14:42:46.076Z,54.72
2023-04-21T14:43:47.589Z,54.42
2023-04-21T14:44:46.077Z,54.73
2023-04-21T14:45:46.061Z,54.64
2023-04-21T14:46:56.855Z,54.51
2023-04-21T14:47:47.054Z,55.73
2023-04-21T14:48:46.029Z,55.79
2023-04-21T14:49:46.006Z,56.88
2023-04-21T14:50:46.014Z,56.21
2023-04-21T14:51:45.969Z,55.80
2023-04-21T14:52:45.972Z,56.12
2023-04-21T14:53:45.983Z,55.29
2023-04-21T14:54:45.962Z,54.23
2023-04-21T14:55:45.912Z,54.74
2023-04-21T14:56:45.949Z,55.12
2023-04-21T14:57:45.882Z,55.58
2023-04-21T14:58:45.891Z,54.98
2023-04-21T14:59:45.925Z,54.84
2023-04-21T15:00:45.926Z,54.51
2023-04-21T15:01:45.903Z,53.74
2023-04-21T15:02:45.925Z,53.94
2023-04-21T15:03:46.134Z,53.79
2023-04-21T15:04:45.877Z,53.59
2023-04-21T15:05:45.850Z,53.61
2023-04-21T15:06:45.804Z,53.39
2023-04-21T15:07:45.780Z,53.22
2023-04-21T15:08:45.864Z,53.19
2023-04-21T15:09:45.831Z,52.68
2023-04-21T15:10:45.765Z,52.84
2023-04-21T15:11:45.732Z,52.97
2023-04-21T15:12:45.758Z,52.99
2023-04-21T15:13:45.710Z,53.57
2023-04-21T15:14:45.728Z,53.93
2023-04-21T15:15:45.737Z,53.73
2023-04-21T15:16:45.782Z,54.39
2023-04-21T15:17:45.899Z,53.55
2023-04-21T15:18:45.665Z,54.10
2023-04-21T15:19:45.639Z,54.73
2023-04-21T15:20:46.030Z,54.19
2023-04-21T15:21:45.610Z,54.87
2023-04-21T15:22:45.659Z,54.03
2023-04-21T15:23:45.587Z,54.05
2023-04-21T15:24:45.622Z,54.65
2023-04-21T15:25:45.579Z,54.91
2023-04-21T15:26:45.580Z,53.18
2023-04-21T15:27:45.538Z,53.60
2023-04-21T15:28:45.548Z,53.44
2023-04-21T15:29:45.524Z,53.30
2023-04-21T15:30:45.540Z,52.80
2023-04-21T15:31:45.585Z,52.84
2023-04-21T15:32:45.579Z,52.54
2023-04-21T15:33:45.473Z,53.07
2023-04-21T15:34:45.529Z,53.05
2023-04-21T15:35:45.882Z,52.76
2023-04-21T15:36:45.639Z,52.53
2023-04-21T15:37:45.884Z,52.70
2023-04-21T15:38:45.508Z,53.64
2023-04-21T15:39:45.499Z,53.40
2023-04-21T15:40:59.580Z,52.74
2023-04-21T15:41:46.435Z,53.22
2023-04-21T15:42:45.442Z,53.03
2023-04-21T15:43:45.425Z,52.44
2023-04-21T15:44:45.406Z,52.33
2023-04-21T15:45:45.366Z,51.76
2023-04-21T15:46:45.608Z,52.36
2023-04-21T15:47:45.814Z,53.15
2023-04-21T15:48:45.343Z,52.98
2023-04-21T15:49:45.299Z,52.74
2023-04-21T15:50:45.363Z,53.46
2023-04-21T15:51:45.726Z,53.54
2023-04-21T15:52:45.285Z,52.80
2023-04-21T15:53:45.234Z,52.43
2023-04-21T15:54:45.303Z,53.06
2023-04-21T15:55:45.225Z,52.47
2023-04-21T15:56:45.307Z,51.43
2023-04-21T15:57:45.211Z,51.93
2023-04-21T15:58:45.203Z,51.38
2023-04-21T15:59:45.375Z,51.76
2023-04-21T16:00:45.204Z,51.23
2023-04-21T16:01:45.275Z,52.08
2023-04-21T16:02:45.325Z,51.98
2023-04-21T16:03:45.204Z,52.04
2023-04-21T16:04:45.432Z,53.03
2023-04-21T16:05:45.219Z,52.89
2023-04-21T16:06:45.183Z,52.72
2023-04-21T16:07:45.443Z,53.38
2023-04-21T16:08:45.109Z,53.22
2023-04-21T16:09:45.048Z,53.20
2023-04-21T16:10:45.054Z,53.34
2023-04-21T16:11:45.105Z,53.78
2023-04-21T16:12:45.069Z,52.86
2023-04-21T16:13:45.031Z,53.21
2023-04-21T16:14:55.980Z,53.99
2023-04-21T16:15:46.100Z,53.08
2023-04-21T16:16:45.656Z,52.50
2023-04-21T16:17:45.040Z,52.31
2023-04-21T16:18:45.074Z,52.65
2023-04-21T16:19:44.937Z,53.09
2023-04-21T16:20:44.976Z,53.40
2023-04-21T16:21:44.920Z,53.40
2023-04-21T16:22:44.961Z,53.69
2023-04-21T16:23:44.933Z,53.51
2023-04-21T16:24:45.035Z,53.29
2023-04-21T16:25:45.102Z,53.47
2023-04-21T16:26:44.932Z,53.89
2023-04-21T16:27:44.913Z,54.14
2023-04-21T16:28:44.866Z,54.64
2023-04-21T16:29:44.819Z,54.65
2023-04-21T16:30:44.857Z,55.13
2023-04-21T16:31:44.972Z,55.15
2023-04-21T16:32:45.012Z,55.17
2023-04-21T16:33:44.966Z,54.81
2023-04-21T16:34:45.082Z,54.70
2023-04-21T16:35:44.854Z,54.95
2023-04-21T16:36:44.779Z,54.89
2023-04-21T16:37:44.748Z,54.80
2023-04-21T16:38:46.185Z,54.36
2023-04-21T16:39:44.700Z,53.50
2023-04-21T16:40:44.741Z,53.63
2023-04-21T16:41:44.934Z,53.52